createdAt,value
2023-02-11T00:00:42.642Z,79.27
2023-02-11T00:03:09.738Z,79.16
2023-02-11T00:05:37.141Z,79.65
2023-02-11T00:08:03.815Z,80.75
2023-02-11T00:10:30.499Z,80.35
2023-02-11T00:12:57.178Z,80.26
2023-02-11T00:15:23.796Z,81.57
2023-02-11T00:17:50.353Z,82.08
2023-02-11T00:20:16.999Z,81.64
2023-02-11T00:22:43.797Z,81.52
2023-02-11T00:25:10.569Z,80.73
2023-02-11T00:27:37.818Z,80.23
2023-02-11T00:30:05.468Z,79.85
2023-02-11T00:32:32.386Z,79.61
2023-02-11T00:34:58.950Z,79.31
2023-02-11T00:37:25.543Z,80.68
2023-02-11T00:39:52.205Z,80.89
2023-02-11T00:42:19.871Z,81.75
2023-02-11T00:44:46.427Z,81.47
2023-02-11T00:47:13.009Z,81.21
2023-02-11T00:49:40.457Z,80.61
2023-02-11T00:52:07.351Z,81.33
2023-02-11T00:54:33.917Z,81.59
2023-02-11T00:57:00.676Z,80.83
2023-02-11T00:59:27.364Z,82.31
2023-02-11T01:01:53.981Z,83.24
2023-02-11T01:04:20.589Z,82.01
2023-02-11T01:06:47.191Z,81.79
2023-02-11T01:09:13.895Z,82.88
2023-02-11T01:11:40.502Z,81.50
2023-02-11T01:14:07.045Z,83.41
2023-02-11T01:16:33.628Z,83.91
2023-02-11T01:19:00.250Z,84.58
2023-02-11T01:21:26.862Z,84.19
2023-02-11T01:23:53.501Z,84.28
2023-02-11T01:26:20.305Z,83.92
2023-02-11T01:28:47.000Z,82.99
2023-02-11T01:31:14.291Z,82.80
2023-02-11T01:33:41.026Z,82.58
2023-02-11T01:36:08.204Z,80.93
2023-02-11T01:38:35.510Z,83.74
2023-02-11T01:41:05.922Z,82.20
2023-02-11T01:43:35.908Z,81.69
2023-02-11T01:46:20.116Z,83.17
2023-02-11T01:48:55.458Z,81.84
2023-02-11T01:51:27.379Z,81.70
2023-02-11T01:54:14.407Z,81.90
2023-02-11T01:57:05.815Z,82.29
2023-02-11T01:59:46.023Z,82.63
2023-02-11T02:02:15.782Z,82.77
2023-02-11T02:05:05.183Z,83.02
2023-02-11T02:07:39.066Z,82.87
2023-02-11T02:10:13.542Z,82.84
2023-02-11T02:12:40.108Z,84.18
2023-02-11T02:15:22.221Z,85.72
2023-02-11T02:18:17.374Z,85.91
2023-02-11T02:21:02.693Z,85.20
2023-02-11T02:24:04.682Z,83.96
2023-02-11T02:26:37.296Z,83.93
2023-02-11T02:29:22.395Z,83.90
2023-02-11T02:32:11.740Z,83.69
2023-02-11T02:34:58.520Z,83.98
2023-02-11T02:37:33.085Z,84.95
2023-02-11T02:40:07.621Z,86.39
2023-02-11T02:42:34.610Z,86.01
2023-02-11T02:45:01.323Z,86.87
2023-02-11T02:47:28.058Z,88.55
2023-02-11T02:49:54.594Z,88.82
2023-02-11T02:52:30.133Z,87.73
2023-02-11T02:55:17.927Z,86.58
2023-02-11T02:58:11.886Z,85.50
2023-02-11T03:00:52.847Z,84.90
2023-02-11T03:03:26.721Z,84.66
2023-02-11T03:06:22.460Z,84.55
2023-02-11T03:09:01.583Z,83.51
2023-02-11T03:11:29.245Z,84.26
2023-02-11T03:13:57.473Z,84.54
2023-02-11T03:16:27.861Z,84.35
2023-02-11T03:19:06.667Z,83.43
2023-02-11T03:21:36.573Z,85.93
2023-02-11T03:24:06.131Z,87.39
2023-02-11T03:26:32.683Z,86.36
2023-02-11T03:29:08.064Z,86.24
2023-02-11T03:31:47.774Z,87.01
2023-02-11T03:34:41.186Z,85.98
2023-02-11T03:37:36.883Z,85.29
2023-02-11T03:40:06.622Z,87.02
2023-02-11T03:42:39.855Z,88.07
2023-02-11T03:45:10.761Z,87.44
2023-02-11T03:47:40.237Z,85.64
2023-02-11T03:50:09.110Z,84.59
2023-02-11T03:52:37.962Z,84.29
2023-02-11T03:55:11.005Z,84.32
2023-02-11T03:57:38.129Z,84.59
2023-02-11T04:00:05.830Z,85.15
2023-02-11T04:02:35.568Z,86.05
2023-02-11T04:05:02.603Z,85.18
2023-02-11T04:07:29.479Z,85.05
2023-02-11T04:09:56.043Z,85.39
2023-02-11T04:12:22.737Z,86.33
2023-02-11T04:14:49.327Z,89.74
2023-02-11T04:17:16.517Z,89.59
2023-02-11T04:19:43.187Z,89.40
2023-02-11T04:22:10.180Z,88.24
2023-02-11T04:24:36.856Z,87.04
2023-02-11T04:27:03.604Z,90.85
2023-02-11T04:29:30.337Z,87.66
2023-02-11T04:31:56.944Z,86.89
2023-02-11T04:34:24.546Z,86.72
2023-02-11T04:36:51.175Z,87.40
2023-02-11T04:39:17.717Z,88.31
2023-02-11T04:41:44.440Z,88.38
2023-02-11T04:44:11.153Z,88.45
2023-02-11T04:46:37.797Z,87.44
2023-02-11T04:49:04.490Z,85.13
2023-02-11T04:51:31.148Z,84.08
2023-02-11T04:53:57.779Z,84.75
2023-02-11T04:56:24.484Z,85.36
2023-02-11T04:58:51.163Z,87.71
2023-02-11T05:01:17.863Z,88.29
2023-02-11T05:03:44.783Z,87.95
2023-02-11T05:06:11.777Z,88.49
2023-02-11T05:08:38.630Z,89.06
2023-02-11T05:11:05.752Z,90.09
2023-02-11T05:13:32.642Z,91.44
2023-02-11T05:15:59.374Z,91.15
2023-02-11T05:18:25.966Z,91.49
2023-02-11T05:20:52.547Z,91.30
2023-02-11T05:23:19.178Z,90.97
2023-02-11T05:25:45.782Z,90.54
2023-02-11T05:28:12.416Z,90.74
2023-02-11T05:30:39.077Z,90.84
2023-02-11T05:33:05.797Z,90.69
2023-02-11T05:35:32.486Z,90.49
2023-02-11T05:37:59.077Z,89.96
2023-02-11T05:40:25.691Z,89.64
2023-02-11T05:42:52.242Z,89.81
2023-02-11T05:45:18.838Z,89.69
2023-02-11T05:47:45.545Z,89.57
2023-02-11T05:50:12.181Z,89.23
2023-02-11T05:52:38.752Z,89.65
2023-02-11T05:55:06.000Z,89.43
2023-02-11T05:57:32.642Z,89.47
2023-02-11T05:59:59.351Z,89.29
2023-02-11T06:02:26.066Z,89.17
2023-02-11T06:04:52.710Z,89.19
2023-02-11T06:07:19.823Z,89.09
2023-02-11T06:09:46.440Z,89.02
2023-02-11T06:12:13.163Z,88.38
2023-02-11T06:14:39.769Z,88.46
2023-02-11T06:17:06.373Z,88.19
2023-02-11T06:19:32.943Z,87.50
2023-02-11T06:21:59.637Z,87.72
2023-02-11T06:24:50.986Z,87.27
2023-02-11T06:27:12.841Z,87.81
2023-02-11T06:29:39.518Z,87.86
2023-02-11T06:32:06.223Z,87.69
2023-02-11T06:34:32.871Z,87.66
2023-02-11T06:36:59.429Z,86.79
2023-02-11T06:39:25.941Z,86.73
2023-02-11T06:41:52.720Z,86.25
2023-02-11T06:44:19.291Z,86.32
2023-02-11T06:46:46.038Z,86.73
2023-02-11T06:49:13.419Z,86.23
2023-02-11T06:51:40.124Z,86.34
2023-02-11T06:54:07.385Z,86.19
2023-02-11T06:56:34.396Z,86.07
2023-02-11T06:59:01.132Z,85.81
2023-02-11T07:01:28.583Z,85.48
2023-02-11T07:03:55.236Z,85.71
2023-02-11T07:06:24.802Z,85.54
2023-02-11T07:08:51.552Z,85.30
2023-02-11T07:11:24.482Z,85.18
2023-02-11T07:13:52.013Z,84.99
2023-02-11T07:16:19.126Z,84.71
2023-02-11T07:18:47.116Z,84.59
2023-02-11T07:21:16.654Z,84.65
2023-02-11T07:23:43.670Z,84.04
2023-02-11T07:26:13.007Z,84.08
2023-02-11T07:28:40.767Z,83.52
2023-02-11T07:31:07.976Z,83.53
2023-02-11T07:33:35.348Z,84.02
2023-02-11T07:36:01.954Z,83.74
2023-02-11T07:38:28.558Z,83.35
2023-02-11T07:40:55.131Z,82.18
2023-02-11T07:43:21.803Z,81.66
2023-02-11T07:45:48.766Z,81.70
2023-02-11T07:48:15.541Z,81.71
2023-02-11T07:50:42.206Z,81.40
2023-02-11T07:53:08.771Z,81.04
2023-02-11T07:55:35.633Z,80.00
2023-02-11T07:58:02.146Z,79.23
2023-02-11T08:00:28.695Z,79.04
2023-02-11T08:02:57.313Z,78.14
2023-02-11T08:05:24.204Z,78.09
2023-02-11T08:07:54.702Z,77.47
2023-02-11T08:10:21.591Z,77.56
2023-02-11T08:12:48.338Z,78.12
2023-02-11T08:15:15.054Z,77.75
2023-02-11T08:17:41.594Z,76.60
2023-02-11T08:20:08.505Z,76.29
2023-02-11T08:22:36.501Z,76.06
2023-02-11T08:25:03.271Z,75.80
2023-02-11T08:27:29.874Z,75.02
2023-02-11T08:29:56.597Z,74.37
2023-02-11T08:32:25.603Z,73.77
2023-02-11T08:34:53.072Z,73.34
2023-02-11T08:37:20.337Z,73.06
2023-02-11T08:39:47.483Z,70.97
2023-02-11T08:42:15.732Z,70.77
2023-02-11T08:44:43.068Z,70.52
2023-02-11T08:47:09.783Z,70.08
2023-02-11T08:49:36.485Z,69.59
2023-02-11T08:52:04.265Z,68.81
2023-02-11T08:54:31.751Z,67.74
2023-02-11T08:56:58.301Z,67.91
2023-02-11T08:59:25.058Z,66.59
2023-02-11T09:01:51.980Z,64.94
2023-02-11T09:04:18.957Z,65.02
2023-02-11T09:06:45.852Z,64.34
2023-02-11T09:09:14.050Z,63.74
2023-02-11T09:11:41.971Z,63.54
2023-02-11T09:14:15.010Z,63.38
2023-02-11T09:16:43.161Z,61.38
2023-02-11T09:19:10.694Z,61.08
2023-02-11T09:21:37.345Z,61.36
2023-02-11T09:24:04.262Z,59.77
2023-02-11T09:26:33.817Z,60.22
2023-02-11T09:29:01.170Z,60.16
2023-02-11T09:31:30.194Z,59.19
2023-02-11T09:34:02.860Z,58.79
2023-02-11T09:36:33.060Z,58.39
2023-02-11T09:39:01.178Z,57.56
2023-02-11T09:41:58.613Z,55.87
2023-02-11T09:44:28.392Z,56.51
2023-02-11T09:46:58.631Z,54.62
2023-02-11T09:49:42.217Z,53.98
2023-02-11T09:52:25.034Z,53.61
2023-02-11T09:55:01.969Z,51.79
2023-02-11T09:57:36.525Z,51.59
2023-02-11T10:00:18.082Z,50.94
2023-02-11T10:03:06.421Z,51.93
2023-02-11T10:05:35.871Z,50.76
2023-02-11T10:08:13.645Z,50.28
2023-02-11T10:10:46.977Z,50.13
2023-02-11T10:13:40.859Z,49.98
2023-02-11T10:16:24.058Z,50.37
2023-02-11T10:19:11.359Z,50.05
2023-02-11T10:22:05.553Z,50.59
2023-02-11T10:24:33.726Z,49.07
2023-02-11T10:27:00.279Z,49.62
2023-02-11T10:29:40.678Z,47.89
2023-02-11T10:32:43.156Z,48.31
2023-02-11T10:35:18.059Z,46.82
2023-02-11T10:37:45.597Z,46.05
2023-02-11T10:40:32.504Z,46.47
2023-02-11T10:43:03.957Z,46.21
2023-02-11T10:45:32.779Z,46.45
2023-02-11T10:48:01.628Z,46.65
2023-02-11T10:50:32.555Z,45.49
2023-02-11T10:53:24.394Z,45.27
2023-02-11T10:55:55.918Z,45.26
2023-02-11T10:58:30.618Z,46.31
2023-02-11T11:01:00.034Z,45.44
2023-02-11T11:03:32.245Z,45.91
2023-02-11T11:06:02.137Z,45.71
2023-02-11T11:08:42.637Z,46.76
2023-02-11T11:11:15.094Z,46.67
2023-02-11T11:14:03.812Z,47.21
2023-02-11T11:16:36.651Z,47.32
2023-02-11T11:19:06.155Z,48.35
2023-02-11T11:21:47.719Z,48.05
2023-02-11T11:24:34.406Z,47.68
2023-02-11T11:27:04.186Z,48.07
2023-02-11T11:29:36.702Z,48.76
2023-02-11T11:32:06.832Z,47.91
2023-02-11T11:34:48.404Z,46.33
2023-02-11T11:37:22.710Z,45.37
2023-02-11T11:40:08.124Z,44.98
2023-02-11T11:42:37.444Z,44.12
2023-02-11T11:45:24.916Z,44.11
2023-02-11T11:48:10.714Z,42.67
2023-02-11T11:50:43.510Z,42.17
2023-02-11T11:53:28.928Z,41.61
2023-02-11T11:56:20.165Z,41.75
2023-02-11T11:58:47.183Z,42.21
2023-02-11T12:01:22.795Z,41.76
2023-02-11T12:04:23.179Z,41.88
2023-02-11T12:07:20.825Z,42.81
2023-02-11T12:10:22.861Z,43.84
2023-02-11T12:13:32.700Z,44.59
2023-02-11T12:16:21.404Z,43.55
2023-02-11T12:19:13.960Z,42.75
2023-02-11T12:21:48.537Z,42.62
2023-02-11T12:24:29.684Z,42.64
2023-02-11T12:27:09.850Z,41.84
2023-02-11T12:30:01.931Z,41.67
2023-02-11T12:33:00.986Z,41.46
2023-02-11T12:36:05.125Z,42.02
2023-02-11T12:38:50.980Z,41.72
2023-02-11T12:42:00.501Z,42.00
2023-02-11T12:44:53.239Z,42.42
2023-02-11T12:47:38.099Z,42.52
2023-02-11T12:50:05.252Z,42.48
2023-02-11T12:52:46.794Z,42.80
2023-02-11T12:55:26.920Z,42.21
2023-02-11T12:57:57.050Z,42.85
2023-02-11T13:00:29.212Z,43.12
2023-02-11T13:03:11.079Z,43.41
2023-02-11T13:05:50.171Z,42.67
2023-02-11T13:08:24.964Z,42.54
2023-02-11T13:10:57.788Z,42.32
2023-02-11T13:13:33.480Z,42.36
2023-02-11T13:16:11.815Z,43.04
2023-02-11T13:18:49.591Z,42.45
2023-02-11T13:21:16.473Z,42.45
2023-02-11T13:23:52.278Z,43.48
2023-02-11T13:26:33.344Z,43.78
2023-02-11T13:29:14.802Z,43.44
2023-02-11T13:31:41.645Z,44.06
2023-02-11T13:34:46.668Z,43.91
2023-02-11T13:37:23.895Z,43.93
2023-02-11T13:40:19.720Z,44.68
2023-02-11T13:43:02.728Z,45.38
2023-02-11T13:45:40.056Z,45.42
2023-02-11T13:48:23.733Z,45.92
2023-02-11T13:50:54.365Z,46.46
2023-02-11T13:53:21.385Z,46.31
2023-02-11T13:55:52.179Z,46.18
2023-02-11T13:58:36.449Z,45.64
2023-02-11T14:01:03.503Z,45.86
2023-02-11T14:03:56.952Z,45.99
2023-02-11T14:06:45.208Z,45.47
2023-02-11T14:09:14.630Z,46.22
2023-02-11T14:11:41.700Z,46.88
2023-02-11T14:14:21.781Z,46.86
2023-02-11T14:17:00.501Z,46.91
2023-02-11T14:19:43.753Z,47.38
2023-02-11T14:22:10.265Z,47.64
2023-02-11T14:24:36.744Z,47.45
2023-02-11T14:27:23.210Z,47.18
2023-02-11T14:30:30.903Z,47.45
2023-02-11T14:33:15.972Z,47.83
2023-02-11T14:36:13.122Z,48.45
2023-02-11T14:38:52.913Z,48.87
2023-02-11T14:41:25.813Z,49.08
2023-02-11T14:43:55.714Z,49.35
2023-02-11T14:46:24.516Z,49.38
2023-02-11T14:48:55.386Z,49.71
2023-02-11T14:51:26.667Z,49.82
2023-02-11T14:54:00.648Z,49.74
2023-02-11T14:56:31.223Z,49.95
2023-02-11T14:58:58.705Z,49.86
2023-02-11T15:01:35.408Z,50.00
2023-02-11T15:04:05.487Z,50.43
2023-02-11T15:06:33.426Z,50.82
2023-02-11T15:09:07.864Z,50.98
2023-02-11T15:11:39.897Z,51.31
2023-02-11T15:14:10.052Z,51.50
2023-02-11T15:16:41.413Z,52.08
2023-02-11T15:19:17.055Z,52.56
2023-02-11T15:21:45.858Z,52.48
2023-02-11T15:24:25.551Z,52.60
2023-02-11T15:27:16.251Z,53.26
2023-02-11T15:29:46.691Z,53.21
2023-02-11T15:32:24.926Z,53.30
2023-02-11T15:34:53.929Z,53.10
2023-02-11T15:37:22.164Z,53.28
2023-02-11T15:39:49.378Z,53.25
2023-02-11T15:42:27.913Z,53.86
2023-02-11T15:45:24.734Z,54.19
2023-02-11T15:47:54.468Z,54.80
2023-02-11T15:50:24.481Z,54.91
2023-02-11T15:52:51.974Z,55.13
2023-02-11T15:55:19.570Z,55.36
2023-02-11T15:57:51.354Z,55.58
2023-02-11T16:00:21.198Z,55.77
2023-02-11T16:02:49.681Z,55.86
2023-02-11T16:05:33.533Z,56.16
2023-02-11T16:08:01.721Z,55.88
2023-02-11T16:10:33.491Z,55.77
2023-02-11T16:13:06.205Z,55.66
2023-02-11T16:15:52.628Z,55.75
2023-02-11T16:18:38.468Z,56.10
2023-02-11T16:21:13.109Z,55.85
2023-02-11T16:23:42.450Z,56.28
2023-02-11T16:26:39.383Z,56.69
2023-02-11T16:29:17.907Z,57.28
2023-02-11T16:31:47.368Z,57.82
2023-02-11T16:34:17.072Z,58.42
2023-02-11T16:36:44.006Z,58.87
2023-02-11T16:39:11.238Z,59.46
2023-02-11T16:41:37.853Z,60.06
2023-02-11T16:44:04.756Z,60.00
2023-02-11T16:46:32.016Z,60.63
2023-02-11T16:49:10.288Z,61.15
2023-02-11T16:51:40.406Z,61.37
2023-02-11T16:54:07.059Z,62.29
2023-02-11T16:56:33.591Z,62.41
2023-02-11T16:59:00.732Z,62.61
2023-02-11T17:01:27.394Z,63.01
2023-02-11T17:03:54.062Z,63.23
2023-02-11T17:06:20.732Z,63.58
2023-02-11T17:08:47.332Z,64.05
2023-02-11T17:11:17.124Z,64.28
2023-02-11T17:13:44.107Z,64.01
2023-02-11T17:16:22.602Z,63.65
2023-02-11T17:18:49.525Z,63.77
2023-02-11T17:21:16.350Z,63.63
2023-02-11T17:23:43.557Z,64.47
2023-02-11T17:26:10.328Z,64.25
2023-02-11T17:28:36.955Z,64.50
2023-02-11T17:31:08.695Z,64.53
2023-02-11T17:33:36.360Z,65.00
2023-02-11T17:36:08.006Z,64.79
2023-02-11T17:38:35.359Z,65.63
2023-02-11T17:41:02.848Z,65.78
2023-02-11T17:43:29.412Z,65.63
2023-02-11T17:45:56.070Z,66.02
2023-02-11T17:48:22.716Z,66.15
2023-02-11T17:50:49.347Z,66.77
2023-02-11T17:53:15.902Z,66.55
2023-02-11T17:55:42.459Z,66.57
2023-02-11T17:58:09.057Z,66.89
2023-02-11T18:00:35.656Z,66.25
2023-02-11T18:03:03.318Z,66.34
2023-02-11T18:05:37.459Z,66.36
2023-02-11T18:08:06.056Z,66.44
2023-02-11T18:10:33.570Z,66.05
2023-02-11T18:13:01.343Z,65.79
2023-02-11T18:15:27.975Z,65.39
2023-02-11T18:17:55.837Z,65.37
2023-02-11T18:20:22.463Z,64.85
2023-02-11T18:22:49.068Z,64.60
2023-02-11T18:25:16.130Z,64.74
2023-02-11T18:27:42.932Z,64.60
2023-02-11T18:30:15.397Z,65.01
2023-02-11T18:32:42.103Z,64.83
2023-02-11T18:35:14.814Z,65.13
2023-02-11T18:37:42.648Z,64.78
2023-02-11T18:40:10.521Z,64.63
2023-02-11T18:42:37.113Z,64.58
2023-02-11T18:45:09.647Z,64.49
2023-02-11T18:47:40.623Z,64.72
2023-02-11T18:50:09.185Z,64.88
2023-02-11T18:52:38.967Z,64.57
2023-02-11T18:55:06.643Z,64.24
2023-02-11T18:57:33.268Z,63.77
2023-02-11T19:00:00.081Z,64.19
2023-02-11T19:02:26.978Z,64.42
2023-02-11T19:04:53.511Z,64.25
2023-02-11T19:07:20.267Z,64.02
2023-02-11T19:09:46.774Z,63.94
2023-02-11T19:12:13.484Z,63.97
2023-02-11T19:14:40.082Z,64.02
2023-02-11T19:17:07.691Z,63.87
2023-02-11T19:19:36.140Z,63.82
2023-02-11T19:22:07.918Z,63.89
2023-02-11T19:24:37.312Z,63.92
2023-02-11T19:27:04.964Z,64.10
2023-02-11T19:29:33.448Z,64.06
2023-02-11T19:32:00.080Z,63.93
2023-02-11T19:34:26.769Z,63.87
2023-02-11T19:36:54.393Z,64.05
2023-02-11T19:39:21.076Z,63.65
2023-02-11T19:41:47.598Z,64.00
2023-02-11T19:44:14.746Z,63.92
2023-02-11T19:46:41.443Z,63.79
2023-02-11T19:49:10.030Z,63.88
2023-02-11T19:51:39.415Z,63.79
2023-02-11T19:54:07.106Z,64.23
2023-02-11T19:56:34.417Z,63.75
2023-02-11T19:59:02.908Z,63.90
2023-02-11T20:01:29.472Z,64.14
2023-02-11T20:03:57.495Z,63.82
2023-02-11T20:06:28.071Z,63.88
2023-02-11T20:08:58.635Z,63.71
2023-02-11T20:11:28.124Z,63.57
2023-02-11T20:13:55.128Z,63.74
2023-02-11T20:16:27.087Z,63.63
2023-02-11T20:19:00.948Z,63.68
2023-02-11T20:21:31.620Z,63.57
2023-02-11T20:23:59.207Z,63.59
2023-02-11T20:26:32.229Z,63.24
2023-02-11T20:29:03.590Z,63.43
2023-02-11T20:31:32.319Z,63.14
2023-02-11T20:33:59.914Z,63.06
2023-02-11T20:36:32.414Z,62.97
2023-02-11T20:39:00.376Z,62.47
2023-02-11T20:41:32.012Z,62.21
2023-02-11T20:44:01.743Z,62.38
2023-02-11T20:46:30.327Z,61.96
2023-02-11T20:48:57.633Z,61.70
2023-02-11T20:51:31.495Z,61.45
2023-02-11T20:53:59.450Z,61.19
2023-02-11T20:56:31.495Z,60.77
2023-02-11T20:58:59.298Z,60.40
2023-02-11T21:01:31.760Z,60.34
2023-02-11T21:04:02.257Z,59.85
2023-02-11T21:06:36.349Z,59.57
2023-02-11T21:09:05.011Z,58.98
2023-02-11T21:11:31.738Z,58.47
2023-02-11T21:13:59.196Z,58.24
2023-02-11T21:16:26.948Z,57.70
2023-02-11T21:18:55.422Z,56.91
2023-02-11T21:21:22.259Z,56.59
2023-02-11T21:23:48.815Z,56.37
2023-02-11T21:26:16.978Z,55.42
2023-02-11T21:28:44.371Z,55.38
2023-02-11T21:31:19.465Z,55.00
2023-02-11T21:33:46.095Z,54.72
2023-02-11T21:36:14.070Z,55.13
2023-02-11T21:38:41.217Z,54.61
2023-02-11T21:41:07.845Z,54.53
2023-02-11T21:43:34.576Z,54.56
2023-02-11T21:46:01.553Z,54.18
2023-02-11T21:48:28.546Z,53.87
2023-02-11T21:50:55.170Z,53.45
2023-02-11T21:53:21.738Z,53.13
2023-02-11T21:55:51.613Z,53.39
2023-02-11T21:58:18.311Z,52.49
2023-02-11T22:00:44.905Z,52.72
2023-02-11T22:03:12.366Z,52.37
2023-02-11T22:05:41.146Z,52.17
2023-02-11T22:08:07.755Z,51.48
2023-02-11T22:10:34.310Z,51.89
2023-02-11T22:13:00.848Z,51.88
2023-02-11T22:15:27.474Z,52.37
2023-02-11T22:17:56.132Z,51.99
2023-02-11T22:20:23.091Z,52.56
2023-02-11T22:22:50.868Z,52.41
2023-02-11T22:25:17.914Z,53.15
2023-02-11T22:27:44.693Z,53.36
2023-02-11T22:30:11.823Z,53.23
2023-02-11T22:32:38.380Z,53.19
2023-02-11T22:35:05.189Z,53.52
2023-02-11T22:37:31.797Z,53.71
2023-02-11T22:39:58.333Z,53.61
2023-02-11T22:42:24.915Z,53.64
2023-02-11T22:44:51.578Z,53.31
2023-02-11T22:47:18.110Z,53.92
2023-02-11T22:49:44.674Z,53.69
2023-02-11T22:52:12.295Z,53.82
2023-02-11T22:54:38.972Z,53.79
2023-02-11T22:57:05.569Z,54.20
2023-02-11T22:59:32.130Z,54.22
2023-02-11T23:01:58.830Z,54.06
2023-02-11T23:04:25.430Z,54.14
2023-02-11T23:06:52.141Z,54.96
2023-02-11T23:09:18.768Z,55.45
2023-02-11T23:11:45.574Z,55.67
2023-02-11T23:14:12.353Z,55.56
2023-02-11T23:16:39.405Z,55.85
2023-02-11T23:19:08.435Z,56.10
2023-02-11T23:21:38.133Z,56.32
2023-02-11T23:24:08.428Z,56.40
2023-02-11T23:26:37.235Z,56.06
2023-02-11T23:29:04.034Z,56.79
2023-02-11T23:31:37.857Z,56.66
2023-02-11T23:34:04.825Z,57.09
2023-02-11T23:36:31.561Z,57.36
2023-02-11T23:38:58.128Z,57.76
2023-02-11T23:41:25.299Z,57.86
2023-02-11T23:43:54.070Z,58.12
2023-02-11T23:46:22.021Z,58.09
2023-02-11T23:48:50.033Z,58.52
2023-02-11T23:51:16.693Z,58.36
2023-02-11T23:53:45.751Z,58.53
2023-02-11T23:56:19.143Z,58.43
2023-02-11T23:58:49.043Z,58.50
